Time;durP1;ratioP1;P1;durP2;ratioP2;P2;SDS_P1;SDS_P2;PMS_P1;PMS_P2;Temp;Humidity;BMP_temperature;BMP_pressure;BME280_temperature;BME280_humidity;BME280_pressure;Samples;Min_cycle;Max_cycle;Signal;HPM_P1;HPM_P2
2022/06/01 00:01:23;;;;;;;11.20;1.98;;;;;;;22.70;55.86;99112.47;7312418;19;130978;-43
2022/06/01 00:03:49;;;;;;;37.65;3.70;;;;;;;22.58;54.66;99094.56;7308587;19;158486;-41
2022/06/01 00:06:14;;;;;;;25.08;3.00;;;;;;;22.57;54.52;99085.91;7311514;19;129068;-38
2022/06/01 00:08:40;;;;;;;13.77;2.67;;;;;;;22.72;55.65;99109.69;7311328;19;129245;-42
2022/06/01 00:11:06;;;;;;;29.02;3.50;;;;;;;22.70;54.65;99107.25;7308164;19;130969;-42
2022/06/01 00:13:31;;;;;;;33.60;3.92;;;;;;;22.70;55.56;99106.41;7310786;19;138608;-42
2022/06/01 00:15:57;;;;;;;52.15;4.93;;;;;;;22.59;55.24;99088.38;7309708;19;130790;-42
2022/06/01 00:18:23;;;;;;;30.73;3.20;;;;;;;22.74;54.35;99107.75;7310387;19;153965;-42
2022/06/01 00:20:50;;;;;;;30.80;3.40;;;;;;;22.75;54.52;99115.44;7307923;19;129730;-41
2022/06/01 00:23:17;;;;;;;22.63;2.80;;;;;;;22.61;54.00;99092.47;7310906;19;132010;-43
2022/06/01 00:25:42;;;;;;;50.75;5.20;;;;;;;22.72;54.58;99114.94;7311192;19;128993;-42
2022/06/01 00:28:08;;;;;;;29.88;3.42;;;;;;;22.75;54.72;99114.63;7312217;19;129625;-42
2022/06/01 00:30:33;;;;;;;31.95;3.45;;;;;;;22.75;54.21;99114.63;7307818;19;130096;-40
2022/06/01 00:32:59;;;;;;;29.17;3.10;;;;;;;22.73;55.27;99116.56;7311279;19;130896;-41
2022/06/01 00:35:24;;;;;;;30.15;3.53;;;;;;;22.74;54.32;99123.47;7310048;19;154656;-41
2022/06/01 00:37:50;;;;;;;13.13;2.20;;;;;;;22.71;55.88;99127.22;7311743;19;129567;-41
2022/06/01 00:40:17;;;;;;;29.17;3.15;;;;;;;22.62;55.43;99106.38;7309289;19;130630;-42
2022/06/01 00:42:47;;;;;;;25.55;3.08;;;;;;;22.68;56.40;99124.91;7311443;19;130393;-41
2022/06/01 00:45:15;;;;;;;38.75;3.38;;;;;;;22.69;54.62;99125.75;7311483;19;129123;-43
2022/06/01 00:47:41;;;;;;;31.85;3.38;;;;;;;22.69;54.44;99141.47;7308815;19;129981;-43
2022/06/01 00:50:11;;;;;;;42.50;4.37;;;;;;;22.68;55.72;99139.81;7307804;19;158339;-43
2022/06/01 00:52:40;;;;;;;20.30;2.78;;;;;;;22.39;51.40;99139.31;7309966;19;132556;-42
2022/06/01 00:55:18;;;;;;;37.20;3.78;;;;;;;22.37;55.24;99130.78;7310371;19;129001;-43
2022/06/01 00:57:48;;;;;;;26.50;3.13;;;;;;;22.48;55.92;99127.91;7309843;19;128984;-43
2022/06/01 01:00:21;;;;;;;36.20;4.05;;;;;;;22.57;55.62;99142.72;7308386;19;130094;-44
2022/06/01 01:02:48;;;;;;;35.50;3.33;;;;;;;22.56;53.20;99136.66;7308852;19;132268;-42
2022/06/01 01:05:16;;;;;;;38.42;4.00;;;;;;;22.63;55.57;99157.81;7309417;19;129303;-43
2022/06/01 01:07:43;;;;;;;30.80;3.25;;;;;;;22.71;54.08;99150.00;7308810;19;129056;-42
2022/06/01 01:10:10;;;;;;;59.78;4.95;;;;;;;22.69;54.37;99146.72;7306663;19;129368;-38
2022/06/01 01:15:20;;;;;;;30.10;3.70;;;;;;;22.66;54.48;99150.44;7310311;19;130467;-38
2022/06/01 01:17:48;;;;;;;19.08;1.95;;;;;;;22.68;55.26;99155.53;7307225;19;154597;-42
2022/06/01 01:20:15;;;;;;;36.47;3.58;;;;;;;22.72;55.36;99162.13;7307578;19;129216;-41
2022/06/01 01:22:51;;;;;;;23.35;2.60;;;;;;;22.73;55.21;99159.34;7308939;19;130958;-43
2022/06/01 01:25:21;;;;;;;35.17;3.33;;;;;;;22.71;54.42;99168.34;7309041;19;129271;-39
2022/06/01 01:27:51;;;;;;;25.17;2.53;;;;;;;22.70;54.75;99149.16;7308096;19;129059;-43
2022/06/01 01:30:23;;;;;;;37.90;3.53;;;;;;;22.63;55.03;99139.47;7307429;19;130406;-41
2022/06/01 01:32:48;;;;;;;19.33;2.47;;;;;;;22.71;54.56;99155.25;7309787;19;129640;-42
2022/06/01 01:35:14;;;;;;;23.13;2.75;;;;;;;22.63;54.51;99142.09;7309933;19;129806;-38
2022/06/01 01:37:39;;;;;;;17.75;2.08;;;;;;;22.68;55.70;99163.41;7307622;19;154910;-41
2022/06/01 01:40:05;;;;;;;33.03;3.40;;;;;;;22.71;54.55;99170.97;7308217;19;131915;-43
2022/06/01 01:42:30;;;;;;;49.13;4.73;;;;;;;22.76;53.73;99179.16;7314913;19;129248;-41
2022/06/01 01:45:07;;;;;;;27.75;2.83;;;;;;;22.73;56.23;99163.75;7315670;19;155277;-43
2022/06/01 01:47:36;;;;;;;34.65;3.42;;;;;;;22.62;54.62;99154.38;7314544;19;129140;-41
2022/06/01 01:50:07;;;;;;;26.40;2.95;;;;;;;22.72;54.64;99173.44;7315236;19;130329;-40
2022/06/01 01:52:32;;;;;;;41.17;4.05;;;;;;;22.74;54.48;99173.28;7315085;19;130311;-42
2022/06/01 01:55:01;;;;;;;29.67;2.78;;;;;;;22.72;55.83;99170.81;7314736;19;154086;-42
2022/06/01 01:57:56;;;;;;;42.40;3.95;;;;;;;22.75;56.21;99174.91;7312727;19;154844;-41
2022/06/01 02:00:31;;;;;;;30.98;3.10;;;;;;;22.73;53.87;99166.38;7314471;19;130725;-42
2022/06/01 02:03:21;;;;;;;23.55;2.70;;;;;;;22.72;56.55;99175.22;7316058;19;129194;-41
2022/06/01 02:06:05;;;;;;;14.60;2.15;;;;;;;22.70;55.04;99169.31;7315344;19;129108;-42
2022/06/01 02:08:35;;;;;;;30.08;2.83;;;;;;;22.63;54.91;99156.00;7317087;19;129351;-41
2022/06/01 02:14:15;;;;;;;35.67;3.35;;;;;;;22.33;53.17;99171.38;7314256;19;129100;-42
2022/06/01 02:16:47;;;;;;;26.95;2.88;;;;;;;22.49;55.92;99158.38;7312219;19;130073;-42
2022/06/01 02:19:20;;;;;;;7.18;1.30;;;;;;;22.59;55.99;99159.13;7315211;19;128996;-42
2022/06/01 02:21:46;;;;;;;27.52;2.78;;;;;;;22.63;55.11;99158.63;7314704;19;131222;-41
2022/06/01 02:24:12;;;;;;;27.83;3.27;;;;;;;22.63;54.14;99155.19;7312627;19;129840;-43
2022/06/01 02:26:37;;;;;;;21.38;2.58;;;;;;;22.72;53.92;99156.88;7313500;19;129705;-43
2022/06/01 02:29:09;;;;;;;35.97;3.50;;;;;;;22.61;54.40;99144.88;7314296;19;129408;-43
2022/06/01 02:31:37;;;;;;;37.90;3.63;;;;;;;22.69;54.91;99167.69;7312911;19;129142;-42
2022/06/01 02:34:05;;;;;;;36.75;3.55;;;;;;;22.72;53.83;99167.34;7314720;19;130433;-43
2022/06/01 02:36:30;;;;;;;28.80;2.92;;;;;;;22.71;54.06;99166.53;7314287;19;129431;-42
2022/06/01 02:38:58;;;;;;;34.42;3.22;;;;;;;22.74;53.63;99160.16;7314238;19;128906;-40
2022/06/01 02:44:07;;;;;;;47.00;4.20;;;;;;;22.62;53.85;99156.16;7314123;19;129541;-40
2022/06/01 02:46:33;;;;;;;11.45;1.92;;;;;;;22.71;55.64;99176.22;7310350;19;154973;-42
2022/06/01 02:49:00;;;;;;;42.53;3.58;;;;;;;22.63;54.92;99155.19;7313602;19;130007;-40
2022/06/01 02:51:26;;;;;;;29.05;2.60;;;;;;;22.71;55.08;99176.22;7312232;19;130141;-40
2022/06/01 02:53:52;;;;;;;31.05;3.00;;;;;;;22.73;55.22;99179.47;7314653;19;130323;-41
2022/06/01 02:56:17;;;;;;;21.95;2.33;;;;;;;22.73;53.67;99179.47;7311428;19;155388;-43
2022/06/01 02:58:42;;;;;;;33.30;3.22;;;;;;;22.72;55.07;99172.59;7312394;19;153864;-42
2022/06/01 03:01:08;;;;;;;73.38;5.35;;;;;;;22.74;54.41;99175.88;7308073;19;158223;-42
2022/06/01 03:03:35;;;;;;;34.20;3.30;;;;;;;22.74;54.27;99168.81;7310955;19;129268;-42
2022/06/01 03:06:00;;;;;;;;;;;;;;;22.81;56.47;99172.47;7313844;19;129240;-42
2022/06/01 03:08:26;;;;;;;29.92;3.17;;;;;;;22.73;55.53;99171.59;7312336;19;129566;-43
2022/06/01 03:10:52;;;;;;;22.83;2.45;;;;;;;22.72;56.11;99169.97;7308184;19;158224;-41
2022/06/01 03:13:20;;;;;;;26.08;2.78;;;;;;;22.61;54.67;99154.53;7313292;19;129371;-42
2022/06/01 03:15:45;;;;;;;54.33;4.95;;;;;;;22.73;54.98;99169.81;7312385;19;129112;-40
2022/06/01 03:18:10;;;;;;;31.80;2.72;;;;;;;22.72;55.07;99173.44;7312316;19;154180;-42
2022/06/01 03:20:38;;;;;;;36.70;3.58;;;;;;;22.72;54.78;99183.09;7311618;19;130459;-41
2022/06/01 03:23:04;;;;;;;30.67;3.10;;;;;;;22.74;54.65;99178.50;7312183;19;130375;-41
2022/06/01 03:25:29;;;;;;;49.83;4.67;;;;;;;22.74;54.50;99175.88;7313108;19;129002;-42
2022/06/01 03:27:57;;;;;;;31.10;3.00;;;;;;;22.76;54.22;99179.16;7311900;19;129759;-43
2022/06/01 03:30:24;;;;;;;44.05;3.83;;;;;;;22.47;51.86;99178.66;7311628;19;130152;-41
2022/06/01 03:32:50;;;;;;;19.15;1.95;;;;;;;22.28;52.35;99179.69;7312321;19;129464;-43
2022/06/01 03:35:18;;;;;;;30.30;3.03;;;;;;;22.50;56.29;99173.09;7311634;19;131214;-39
2022/06/01 03:37:44;;;;;;;29.70;3.00;;;;;;;22.56;54.78;99173.34;7312598;19;129984;-41
2022/06/01 03:40:10;;;;;;;23.17;2.25;;;;;;;22.66;53.46;99168.00;7312382;19;129725;-42
2022/06/01 03:42:36;;;;;;;21.02;2.45;;;;;;;22.69;54.25;99168.47;7312839;19;130418;-39
2022/06/01 03:47:46;;;;;;;26.48;2.53;;;;;;;22.68;53.86;99176.50;7313815;19;129223;-42
2022/06/01 03:50:12;;;;;;;18.63;2.08;;;;;;;22.69;54.26;99180.78;7309729;19;158308;-40
2022/06/01 03:52:38;;;;;;;48.47;4.38;;;;;;;22.71;54.57;99186.69;7307999;19;129119;-42
2022/06/01 03:55:08;;;;;;;36.53;3.63;;;;;;;22.69;54.04;99188.66;7310300;19;129769;-42
2022/06/01 03:57:33;;;;;;;44.28;4.00;;;;;;;22.72;53.87;99189.16;7309808;19;129501;-42
2022/06/01 03:59:59;;;;;;;67.32;5.32;;;;;;;22.72;54.64;99190.94;7309872;19;130746;-41
2022/06/01 04:02:24;;;;;;;30.95;3.05;;;;;;;22.59;54.36;99174.84;7307138;19;158499;-40
2022/06/01 04:04:49;;;;;;;22.92;2.30;;;;;;;22.68;55.08;99181.75;7308860;19;154452;-42
2022/06/01 04:07:14;;;;;;;29.77;2.72;;;;;;;22.71;54.70;99191.94;7308943;19;154409;-41
2022/06/01 04:09:40;;;;;;;20.88;2.22;;;;;;;22.74;54.64;99187.19;7309793;19;158441;-42
2022/06/01 04:12:06;;;;;;;40.37;3.60;;;;;;;22.71;54.46;99187.50;7306139;19;159495;-42
2022/06/01 04:14:32;;;;;;;;;;;;;;;22.75;56.28;99188.84;7312154;19;129308;-42
2022/06/01 04:16:57;;;;;;;32.53;2.70;;;;;;;22.72;54.32;99196.19;7308970;19;154078;-42
2022/06/01 04:19:22;;;;;;;38.42;3.28;;;;;;;22.72;54.89;99190.94;7307464;19;145467;-42
2022/06/01 04:21:51;;;;;;;23.33;2.55;;;;;;;22.72;54.23;99204.03;7310411;19;158583;-42
2022/06/01 04:24:20;;;;;;;25.58;2.45;;;;;;;22.69;54.87;99193.88;7310423;19;129656;-41
2022/06/01 04:26:45;;;;;;;36.97;3.35;;;;;;;22.71;53.89;99197.97;7309800;19;129426;-40
2022/06/01 04:29:11;;;;;;;35.78;3.20;;;;;;;22.61;54.26;99185.97;7310610;19;130429;-39
2022/06/01 04:31:37;;;;;;;19.20;2.00;;;;;;;22.71;54.80;99195.34;7309513;19;129994;-42
2022/06/01 04:34:02;;;;;;;30.47;2.80;;;;;;;22.71;54.19;99186.69;7310773;19;129504;-43
2022/06/01 04:36:28;;;;;;;36.47;3.17;;;;;;;22.70;55.18;99179.78;7310050;19;129137;-41
2022/06/01 04:38:53;;;;;;;32.13;2.83;;;;;;;22.62;55.10;99177.13;7308000;19;159641;-42
2022/06/01 04:41:18;;;;;;;31.85;2.85;;;;;;;22.70;54.89;99187.66;7307222;19;158390;-42
2022/06/01 04:43:43;;;;;;;22.58;2.08;;;;;;;22.62;53.88;99182.38;7310516;19;129261;-41
2022/06/01 04:46:09;;;;;;;37.35;3.38;;;;;;;22.72;55.01;99209.28;7310015;19;129851;-43
2022/06/01 04:48:35;;;;;;;53.00;4.50;;;;;;;22.72;54.59;99204.88;7308962;19;129154;-43
2022/06/01 04:51:01;;;;;;;25.70;2.42;;;;;;;22.31;51.21;99213.44;7306165;19;159085;-42
2022/06/01 04:53:26;;;;;;;34.92;2.90;;;;;;;22.30;52.21;99210.94;7309805;19;132055;-41
2022/06/01 04:55:52;;;;;;;24.85;2.58;;;;;;;22.48;54.11;99223.03;7308743;19;129112;-41
2022/06/01 04:58:17;;;;;;;35.97;3.17;;;;;;;22.59;54.08;99214.13;7306749;19;158253;-40
2022/06/01 05:00:44;;;;;;;42.30;3.65;;;;;;;22.63;54.25;99218.06;7307121;19;130605;-43
2022/06/01 05:03:10;;;;;;;24.10;2.55;;;;;;;22.66;54.55;99215.16;7309621;19;130810;-43
2022/06/01 05:05:37;;;;;;;52.80;4.37;;;;;;;22.67;53.87;99216.78;7307250;19;130793;-43
2022/06/01 05:08:03;;;;;;;31.30;2.97;;;;;;;22.70;54.20;99219.09;7310077;19;130677;-42
2022/06/01 05:10:28;;;;;;;32.47;2.95;;;;;;;22.62;53.40;99190.22;7307251;19;131812;-42
2022/06/01 05:12:54;;;;;;;24.75;2.35;;;;;;;22.71;53.81;99207.66;7307179;19;129315;-42
2022/06/01 05:15:19;;;;;;;67.03;5.63;;;;;;;22.72;54.78;99201.44;7309704;19;156925;-42
2022/06/01 05:17:45;;;;;;;25.52;2.88;;;;;;;22.70;53.78;99195.50;7313902;19;129575;-40
2022/06/01 05:20:11;;;;;;;23.70;2.30;;;;;;;22.68;54.74;99202.69;7314453;19;158167;-42
2022/06/01 05:22:37;;;;;;;22.40;2.17;;;;;;;22.68;55.08;99203.53;7315575;19;128881;-42
2022/06/01 05:25:03;;;;;;;26.67;2.40;;;;;;;22.68;54.76;99193.06;7317307;19;129027;-42
2022/06/01 05:27:29;;;;;;;;;;;;;;;22.75;56.38;99201.09;7316145;19;132243;-42
2022/06/01 05:29:54;;;;;;;41.07;3.73;;;;;;;22.68;55.32;99193.06;7315497;19;129525;-42
2022/06/01 05:32:20;;;;;;;56.20;4.67;;;;;;;22.71;53.90;99207.66;7313053;19;129312;-42
2022/06/01 05:34:45;;;;;;;33.08;2.97;;;;;;;22.71;54.92;99202.41;7313888;19;129028;-41
2022/06/01 05:37:10;;;;;;;31.85;2.92;;;;;;;22.70;54.56;99203.38;7314289;19;129235;-42
2022/06/01 05:39:36;;;;;;;27.83;2.55;;;;;;;22.68;54.27;99195.69;7314160;19;158581;-42
2022/06/01 05:42:01;;;;;;;31.60;2.90;;;;;;;22.70;53.60;99200.75;7315106;19;130266;-41
2022/06/01 05:44:26;;;;;;;28.60;2.67;;;;;;;22.70;53.57;99200.75;7315282;19;149844;-42
2022/06/01 05:46:56;;;;;;;41.95;3.47;;;;;;;22.70;55.11;99211.22;7313291;19;158295;-41
2022/06/01 05:49:22;;;;;;;23.23;2.30;;;;;;;22.68;55.07;99215.81;7315462;19;130344;-42
2022/06/01 05:51:47;;;;;;;29.38;2.83;;;;;;;22.67;54.63;99212.38;7314744;19;139243;-42
2022/06/01 05:54:12;;;;;;;31.15;2.97;;;;;;;22.71;54.80;99215.53;7313864;19;154351;-43
2022/06/01 05:56:37;;;;;;;27.50;2.72;;;;;;;22.71;55.04;99226.00;7313335;19;159279;-43
2022/06/01 05:59:03;;;;;;;30.57;3.13;;;;;;;22.70;54.49;99221.72;7313740;19;158311;-42
2022/06/01 06:01:28;;;;;;;55.72;4.65;;;;;;;22.71;54.00;99218.94;7315619;19;133955;-40
2022/06/01 06:03:54;;;;;;;33.55;3.15;;;;;;;22.61;55.15;99193.84;7314183;19;128859;-40
2022/06/01 06:06:22;;;;;;;7.80;1.42;;;;;;;22.64;54.32;99196.16;7315164;19;130316;-42
2022/06/01 06:08:54;;;;;;;24.27;2.58;;;;;;;22.66;56.09;99205.47;7314834;19;130946;-43
2022/06/01 06:11:20;;;;;;;24.23;2.55;;;;;;;22.26;50.83;99220.09;7316184;19;129119;-41
2022/06/01 06:13:46;;;;;;;31.88;3.03;;;;;;;22.13;50.78;99211.81;7313972;19;128939;-41
2022/06/01 06:16:14;;;;;;;42.17;3.47;;;;;;;22.12;50.29;99205.75;7314810;19;130212;-42
2022/06/01 06:18:39;;;;;;;44.63;3.53;;;;;;;22.13;49.48;99212.63;7315738;19;131141;-42
2022/06/01 06:21:05;;;;;;;17.38;2.22;;;;;;;22.31;53.33;99210.00;7312487;19;154513;-41
2022/06/01 06:23:31;;;;;;;30.83;2.97;;;;;;;22.48;52.76;99211.72;7317073;19;129524;-41
2022/06/01 06:25:57;;;;;;;27.42;2.53;;;;;;;22.56;54.65;99209.22;7313476;19;129293;-42
2022/06/01 06:28:23;;;;;;;35.42;3.38;;;;;;;22.57;54.78;99210.84;7315751;19;132407;-41
2022/06/01 06:30:48;;;;;;;20.00;2.03;;;;;;;22.59;53.50;99220.16;7314777;19;130579;-42
2022/06/01 06:33:13;;;;;;;26.30;2.58;;;;;;;22.62;52.84;99216.44;7312773;19;154075;-41
2022/06/01 06:35:39;;;;;;;42.95;3.97;;;;;;;22.66;53.11;99225.66;7312270;19;160021;-43
2022/06/01 06:38:04;;;;;;;31.98;2.83;;;;;;;22.67;53.67;99222.03;7313497;19;159236;-41
2022/06/01 06:40:30;;;;;;;19.70;2.28;;;;;;;22.70;52.94;99226.97;7313610;19;129197;-41
2022/06/01 06:42:55;;;;;;;24.08;2.33;;;;;;;22.71;54.71;99229.41;7314602;19;128964;-39
2022/06/01 06:45:20;;;;;;;39.80;3.53;;;;;;;22.71;53.09;99228.63;7312126;19;130381;-41
2022/06/01 06:47:46;;;;;;;29.83;2.92;;;;;;;22.70;53.74;99237.44;7312784;19;159136;-42
2022/06/01 06:50:14;;;;;;;43.70;3.77;;;;;;;22.68;53.42;99232.34;7313412;19;128981;-42
2022/06/01 06:52:39;;;;;;;39.20;3.17;;;;;;;22.69;53.04;99238.44;7311067;19;129327;-42
2022/06/01 06:55:06;;;;;;;43.05;3.88;;;;;;;22.70;53.60;99224.34;7314032;19;130077;-39
2022/06/01 06:57:31;;;;;;;39.17;3.58;;;;;;;22.70;54.76;99232.19;7311626;19;130909;-42
2022/06/01 06:59:58;;;;;;;85.30;6.93;;;;;;;22.67;53.54;99216.78;7310027;19;129112;-39
2022/06/01 07:02:23;;;;;;;61.42;5.13;;;;;;;22.72;54.32;99222.38;7305669;19;129331;-41
2022/06/01 07:04:48;;;;;;;19.33;2.05;;;;;;;22.68;53.29;99224.50;7309425;19;138257;-41
2022/06/01 07:07:14;;;;;;;57.00;4.43;;;;;;;22.70;53.68;99221.72;7302667;19;158796;-40
2022/06/01 07:09:40;;;;;;;38.42;3.10;;;;;;;22.71;53.79;99218.13;7312013;19;129295;-41
2022/06/01 07:12:05;;;;;;;26.08;2.45;;;;;;;22.70;54.21;99216.47;7312580;19;129786;-38
2022/06/01 07:14:31;;;;;;;44.63;3.67;;;;;;;22.70;54.23;99217.31;7312710;19;129542;-42
2022/06/01 07:16:59;;;;;;;27.08;2.47;;;;;;;22.62;53.18;99217.28;7310280;19;158277;-42
2022/06/01 07:19:25;;;;;;;36.80;3.20;;;;;;;22.19;50.87;99212.03;7314339;19;129109;-42
2022/06/01 07:21:50;;;;;;;20.67;2.03;;;;;;;22.25;51.63;99216.66;7312766;19;154043;-41
2022/06/01 07:24:15;;;;;;;22.55;2.40;;;;;;;22.43;54.13;99227.09;7312876;19;151008;-41
2022/06/01 07:26:44;;;;;;;43.20;3.63;;;;;;;22.54;54.64;99226.88;7310828;19;159408;-41
2022/06/01 07:29:10;;;;;;;26.50;2.55;;;;;;;22.58;55.09;99217.72;7313582;19;128995;-41
2022/06/01 07:31:35;;;;;;;37.37;3.07;;;;;;;22.55;52.76;99207.53;7312800;19;129006;-42
2022/06/01 07:34:01;;;;;;;25.88;2.55;;;;;;;22.67;54.09;99228.09;7311067;19;159201;-42
2022/06/01 07:36:28;;;;;;;34.17;3.03;;;;;;;22.65;54.54;99224.81;7312814;19;130259;-41
2022/06/01 07:44:25;;;;;;;31.80;2.65;;;;;;;22.59;53.77;99208.91;7313265;19;129167;-43
2022/06/01 07:46:51;;;;;;;19.47;1.97;;;;;;;22.68;54.19;99218.44;7313697;19;130829;-41
2022/06/01 07:49:17;;;;;;;21.85;2.08;;;;;;;22.67;53.06;99222.03;7313449;19;129738;-42
2022/06/01 07:51:43;;;;;;;46.28;3.88;;;;;;;22.69;53.90;99222.72;7311292;19;128989;-41
2022/06/01 07:54:09;;;;;;;36.00;3.13;;;;;;;22.70;54.09;99232.19;7311188;19;159119;-41
2022/06/01 07:56:34;;;;;;;33.30;3.20;;;;;;;22.66;53.98;99228.25;7312502;19;130399;-42
2022/06/01 07:59:00;;;;;;;29.17;2.70;;;;;;;22.69;54.07;99233.19;7313360;19;128907;-40
2022/06/01 08:01:26;;;;;;;29.63;2.85;;;;;;;22.65;54.81;99235.28;7313427;19;128975;-40
2022/06/01 08:03:53;;;;;;;10.88;1.38;;;;;;;22.65;53.65;99230.06;7311921;19;129715;-40
2022/06/01 08:06:19;;;;;;;25.70;2.38;;;;;;;22.68;54.21;99234.16;7311149;19;129261;-41
2022/06/01 08:08:44;;;;;;;21.67;2.15;;;;;;;22.65;54.44;99235.28;7312763;19;129148;-42
2022/06/01 08:11:09;;;;;;;11.90;1.73;;;;;;;22.35;50.89;99232.25;7310189;19;129009;-41
2022/06/01 08:13:35;;;;;;;30.48;3.03;;;;;;;22.14;50.68;99240.47;7310570;19;158099;-41
2022/06/01 08:16:01;;;;;;;32.92;2.75;;;;;;;22.34;53.81;99241.94;7310366;19;158855;-42
2022/06/01 08:18:26;;;;;;;29.45;2.83;;;;;;;22.38;53.40;99230.16;7313651;19;129639;-38
2022/06/01 08:20:53;;;;;;;15.43;1.77;;;;;;;22.46;53.81;99221.56;7310440;19;128942;-41
2022/06/01 08:23:21;;;;;;;26.08;2.40;;;;;;;22.50;54.90;99228.13;7312325;19;130901;-44
2022/06/01 08:25:46;;;;;;;50.10;4.63;;;;;;;22.61;53.78;99238.38;7311188;19;130421;-44
2022/06/01 08:28:12;;;;;;;10.45;1.42;;;;;;;22.67;53.18;99232.53;7312351;19;129053;-41
2022/06/01 08:30:39;;;;;;;32.70;3.00;;;;;;;22.67;53.91;99238.59;7310125;19;129265;-42
2022/06/01 08:33:05;;;;;;;17.33;2.05;;;;;;;22.66;53.95;99236.13;7309939;19;130140;-43
2022/06/01 08:35:34;;;;;;;39.60;3.70;;;;;;;22.67;53.70;99237.75;7309645;19;130855;-41
2022/06/01 08:38:00;;;;;;;35.95;3.08;;;;;;;22.70;53.56;99242.69;7311649;19;129243;-41
2022/06/01 08:40:29;;;;;;;26.80;2.60;;;;;;;22.70;54.20;99245.31;7310875;19;129861;-42
2022/06/01 08:43:01;;;;;;;24.73;2.25;;;;;;;22.71;54.58;99244.34;7313408;19;130128;-43
2022/06/01 08:45:28;;;;;;;24.75;2.38;;;;;;;22.70;53.70;99251.38;7310941;19;129141;-43
2022/06/01 08:47:53;;;;;;;;;;;;;;;22.75;56.06;99246.50;7311933;19;129601;-42
2022/06/01 08:50:34;;;;;;;26.30;2.45;;;;;;;22.73;55.40;99253.69;7308546;19;129504;-43
2022/06/01 08:53:04;;;;;;;27.98;2.65;;;;;;;22.70;54.59;99255.78;7309333;19;129285;-42
2022/06/01 08:55:53;;;;;;;32.28;2.83;;;;;;;22.63;56.54;99236.41;7310111;19;130456;-42
2022/06/01 08:58:25;;;;;;;22.77;2.33;;;;;;;22.73;55.04;99252.84;7311591;19;129019;-42
2022/06/01 09:01:06;;;;;;;27.25;2.58;;;;;;;22.71;55.49;99254.81;7309410;19;129564;-42
2022/06/01 09:03:37;;;;;;;21.60;2.05;;;;;;;22.72;54.64;99256.47;7310287;19;129571;-43
2022/06/01 09:06:18;;;;;;;21.73;2.13;;;;;;;22.18;50.99;99256.72;7310087;19;129806;-43
2022/06/01 09:09:04;;;;;;;28.05;2.40;;;;;;;22.26;54.24;99259.38;7310563;19;128800;-43
2022/06/01 09:11:37;;;;;;;21.48;2.05;;;;;;;22.41;55.40;99258.66;7311409;19;129035;-42
2022/06/01 09:14:11;;;;;;;31.80;3.20;;;;;;;22.48;54.51;99264.13;7309635;19;130660;-42
2022/06/01 09:16:39;;;;;;;23.73;2.30;;;;;;;22.57;53.92;99260.63;7310205;19;129717;-42
2022/06/01 09:19:11;;;;;;;30.25;2.63;;;;;;;22.66;54.27;99273.63;7311011;19;129248;-43
2022/06/01 09:24:30;;;;;;;31.55;2.65;;;;;;;22.73;54.63;99285.13;7310666;19;129505;-42
2022/06/01 09:27:08;;;;;;;30.10;2.75;;;;;;;22.72;55.95;99296.59;7309367;19;130531;-43
2022/06/01 09:29:47;;;;;;;25.77;2.30;;;;;;;22.74;55.95;99297.25;7309336;19;129125;-43
2022/06/01 09:32:36;;;;;;;21.45;1.98;;;;;;;22.76;56.31;99291.84;7310030;19;129130;-41
2022/06/01 09:35:11;;;;;;;43.17;3.58;;;;;;;22.74;55.14;99299.06;7308240;19;129073;-41
2022/06/01 09:37:40;;;;;;;27.13;2.47;;;;;;;22.72;55.46;99287.91;7310105;19;130142;-43
2022/06/01 09:40:22;;;;;;;39.80;3.42;;;;;;;22.72;55.98;99288.75;7309335;19;129222;-43
2022/06/01 09:42:50;;;;;;;20.95;1.95;;;;;;;22.72;54.13;99280.88;7311063;19;129685;-40
2022/06/01 09:45:25;;;;;;;12.02;1.67;;;;;;;22.73;55.99;99281.69;7311011;19;130984;-40
2022/06/01 09:47:52;;;;;;;20.35;1.92;;;;;;;22.73;53.86;99289.53;7309045;19;130453;-42
2022/06/01 09:50:30;;;;;;;;;;;;;;;22.77;56.01;99296.97;7308552;19;128916;-40
2022/06/01 09:53:13;;;;;;;31.88;2.78;;;;;;;22.71;56.07;99302.81;7307479;19;129033;-42
2022/06/01 09:55:50;;;;;;;41.47;3.60;;;;;;;22.63;56.47;99284.41;7310832;19;131523;-44
2022/06/01 10:06:05;;;;;;;6.22;0.82;;;;;;;22.55;52.32;99302.69;7307344;19;158516;-42
2022/06/01 10:07:01;;;;;;;28.55;2.70;;;;;;;22.38;55.55;99300.88;7315889;19;129310;-43
2022/06/01 10:09:29;;;;;;;33.38;2.80;;;;;;;22.53;54.00;99299.41;7316714;19;130348;-43
2022/06/01 10:11:56;;;;;;;25.27;2.10;;;;;;;22.60;54.18;99299.59;7316228;19;128960;-43
2022/06/01 10:14:24;;;;;;;22.63;1.88;;;;;;;22.69;53.92;99298.69;7315642;19;129035;-42
2022/06/01 10:16:58;;;;;;;20.27;1.75;;;;;;;22.69;55.10;99298.69;7315862;19;130251;-42
2022/06/01 10:19:47;;;;;;;21.60;2.17;;;;;;;22.71;55.27;99283.66;7316861;19;130655;-43
2022/06/01 10:22:27;;;;;;;33.53;2.95;;;;;;;22.72;53.31;99286.13;7316440;19;129214;-43
2022/06/01 10:25:11;;;;;;;35.15;2.92;;;;;;;22.71;55.96;99284.47;7316861;19;130804;-43
2022/06/01 10:27:55;;;;;;;25.15;2.22;;;;;;;22.73;55.98;99284.31;7315850;19;130150;-44
2022/06/01 10:30:25;;;;;;;24.90;2.17;;;;;;;22.71;55.37;99286.28;7314884;19;129590;-42
2022/06/01 10:32:56;;;;;;;16.48;1.58;;;;;;;22.71;54.77;99281.03;7313876;19;128842;-41
2022/06/01 10:35:40;;;;;;;29.55;2.55;;;;;;;22.73;56.13;99279.06;7314152;19;129710;-42
2022/06/01 10:38:17;;;;;;;29.38;2.53;;;;;;;22.70;55.67;99279.38;7314482;19;132322;-42
2022/06/01 10:40:49;;;;;;;24.23;2.05;;;;;;;22.69;56.44;99282.97;7314334;19;130367;-44
2022/06/01 10:43:38;;;;;;;32.42;2.95;;;;;;;22.71;56.42;99286.28;7314899;19;128821;-43
2022/06/01 10:46:13;;;;;;;28.27;2.45;;;;;;;22.73;55.64;99279.06;7314512;19;129040;-41
2022/06/01 10:48:48;;;;;;;23.55;2.10;;;;;;;22.71;56.22;99276.59;7315151;19;129401;-43
2022/06/01 10:51:25;;;;;;;21.42;1.83;;;;;;;22.72;56.25;99266.94;7312833;19;132436;-44
2022/06/01 10:54:22;;;;;;;8.57;1.20;;;;;;;22.18;50.72;99280.28;7312987;19;128881;-40
2022/06/01 10:56:48;;;;;;;20.70;1.73;;;;;;;22.10;50.12;99274.97;7312693;19;129312;-39
2022/06/01 10:59:16;;;;;;;31.00;2.50;;;;;;;22.33;55.22;99276.16;7314217;19;129458;-42
2022/06/01 11:02:10;;;;;;;21.60;1.83;;;;;;;22.44;56.35;99262.78;7315043;19;130883;-39
2022/06/01 11:05:02;;;;;;;32.85;2.90;;;;;;;22.60;55.63;99255.91;7313887;19;129083;-39
2022/06/01 11:07:53;;;;;;;61.33;4.90;;;;;;;22.65;55.57;99251.03;7312143;19;129212;-41
2022/06/01 11:10:30;;;;;;;26.38;2.45;;;;;;;22.72;54.05;99251.22;7314025;19;130214;-40
2022/06/01 11:13:22;;;;;;;24.80;2.15;;;;;;;22.72;55.20;99245.97;7312205;19;129883;-39
2022/06/01 11:16:04;;;;;;;42.03;3.67;;;;;;;22.72;55.24;99243.34;7313767;19;131146;-41
2022/06/01 11:18:47;;;;;;;28.20;2.47;;;;;;;22.70;55.14;99237.44;7314194;19;128930;-40
2022/06/01 11:21:28;;;;;;;28.33;2.35;;;;;;;22.76;55.72;99244.66;7311640;19;129620;-41
2022/06/01 11:24:25;;;;;;;20.98;1.85;;;;;;;22.72;55.98;99235.50;7313133;19;130140;-40
2022/06/01 11:27:05;;;;;;;19.27;1.48;;;;;;;22.71;56.10;99239.09;7312447;19;131919;-41
2022/06/01 11:30:01;;;;;;;32.63;2.83;;;;;;;22.72;55.94;99240.72;7312752;19;130769;-39
2022/06/01 11:33:01;;;;;;;41.03;3.55;;;;;;;22.70;55.88;99232.19;7312627;19;130295;-39
2022/06/01 11:35:39;;;;;;;32.80;2.88;;;;;;;22.69;55.95;99227.94;7313046;19;129466;-39
2022/06/01 11:38:13;;;;;;;23.75;2.03;;;;;;;22.72;53.81;99230.25;7314945;19;129320;-39
2022/06/01 11:40:56;;;;;;;28.00;2.45;;;;;;;22.71;56.32;99236.47;7312360;19;131161;-39
2022/06/01 11:43:38;;;;;;;24.70;1.95;;;;;;;22.71;55.95;99233.88;7314212;19;130251;-40
2022/06/01 11:46:12;;;;;;;26.42;2.25;;;;;;;22.72;55.11;99222.38;7312391;19;130634;-41
2022/06/01 11:48:44;;;;;;;34.67;3.00;;;;;;;22.14;50.67;99232.63;7312708;19;129408;-41
2022/06/01 11:51:20;;;;;;;26.83;2.28;;;;;;;22.04;51.80;99217.97;7311248;19;129163;-40
2022/06/01 11:54:00;;;;;;;19.25;1.70;;;;;;;22.35;56.32;99221.78;7311689;19;131070;-40
2022/06/01 11:56:42;;;;;;;27.17;2.22;;;;;;;22.44;55.39;99221.72;7310918;19;129632;-39